Time;durP1;ratioP1;P1;durP2;ratioP2;P2;SDS_P1;SDS_P2;PMS_P1;PMS_P2;Temp;Humidity;BMP_temperature;BMP_pressure;BME280_temperature;BME280_humidity;BME280_pressure;Samples;Min_cycle;Max_cycle;Signal;HPM_P1;HPM_P2
2021/12/28 00:01:04;;;;;;;3.83;3.23;;;;;;;;;;4950341;29;20035;-62
2021/12/28 00:03:30;;;;;;;3.58;3.28;;;;;;;;;;4951709;29;20484;-62
2021/12/28 00:05:58;;;;;;;3.40;3.10;;;;;;;;;;4952466;29;20027;-62
2021/12/28 00:08:24;;;;;;;4.07;3.10;;;;;;;;;;4952274;29;20023;-63
2021/12/28 00:10:50;;;;;;;3.17;2.88;;;;;;;;;;4952988;29;20034;-62
2021/12/28 00:13:17;;;;;;;3.22;2.70;;;;;;;;;;4952437;29;20047;-62
2021/12/28 00:16:01;;;;;;;3.25;2.58;;;;;;;;;;4952887;29;20227;-62
2021/12/28 00:18:27;;;;;;;3.95;2.88;;;;;;;;;;4952803;29;20023;-64
2021/12/28 00:20:58;;;;;;;3.33;2.70;;;;;;;;;;4951992;29;20098;-62
2021/12/28 00:23:28;;;;;;;6.50;2.90;;;;;;;;;;4952198;29;20103;-63
2021/12/28 00:25:55;;;;;;;2.65;2.45;;;;;;;;;;4952620;29;20023;-62
2021/12/28 00:28:21;;;;;;;2.58;2.38;;;;;;;;;;4952464;29;20035;-61
2021/12/28 00:30:48;;;;;;;3.30;3.00;;;;;;;;;;4952169;29;20035;-61
2021/12/28 00:33:14;;;;;;;3.05;2.53;;;;;;;;;;4952383;29;20028;-62
2021/12/28 00:35:41;;;;;;;2.72;2.50;;;;;;;;;;4951552;29;20500;-62
2021/12/28 00:38:08;;;;;;;3.17;2.85;;;;;;;;;;4949633;29;20419;-62
2021/12/28 00:40:35;;;;;;;2.95;2.63;;;;;;;;;;4951402;29;20019;-62
2021/12/28 00:43:01;;;;;;;3.45;2.78;;;;;;;;;;4952478;29;20400;-62
2021/12/28 00:45:28;;;;;;;2.60;2.40;;;;;;;;;;4934387;29;20063;-62
2021/12/28 00:47:54;;;;;;;2.47;2.25;;;;;;;;;;4955801;29;20023;-62
2021/12/28 00:50:20;;;;;;;5.00;2.85;;;;;;;;;;4955927;29;20045;-62
2021/12/28 00:52:46;;;;;;;2.67;2.45;;;;;;;;;;4952729;29;20019;-62
2021/12/28 00:55:13;;;;;;;3.83;2.20;;;;;;;;;;4956086;29;20131;-62
2021/12/28 00:57:39;;;;;;;2.40;2.20;;;;;;;;;;4955377;29;20023;-62
2021/12/28 01:00:07;;;;;;;2.20;2.00;;;;;;;;;;4956215;29;20030;-62
2021/12/28 01:02:33;;;;;;;4.13;2.38;;;;;;;;;;4955565;29;20039;-62
2021/12/28 01:04:59;;;;;;;4.18;2.67;;;;;;;;;;4938600;29;20492;-62
2021/12/28 01:07:25;;;;;;;2.67;2.20;;;;;;;;;;4955002;29;20019;-63
2021/12/28 01:09:51;;;;;;;3.55;2.00;;;;;;;;;;4955733;29;20041;-62
2021/12/28 01:12:17;;;;;;;3.22;2.58;;;;;;;;;;4955414;29;20054;-62
2021/12/28 01:14:43;;;;;;;3.00;2.70;;;;;;;;;;4955980;29;20031;-62
2021/12/28 01:17:09;;;;;;;2.20;1.83;;;;;;;;;;4956988;29;20432;-62
2021/12/28 01:19:35;;;;;;;7.47;2.17;;;;;;;;;;4956107;29;20023;-62
2021/12/28 01:22:01;;;;;;;3.72;2.10;;;;;;;;;;4956909;29;20391;-62
2021/12/28 01:24:28;;;;;;;2.72;2.20;;;;;;;;;;4955908;29;20038;-63
2021/12/28 01:26:54;;;;;;;2.60;2.20;;;;;;;;;;4956794;29;20039;-62
2021/12/28 01:29:20;;;;;;;2.83;1.92;;;;;;;;;;4956483;29;20094;-62
2021/12/28 01:31:46;;;;;;;2.53;2.10;;;;;;;;;;4955807;29;20027;-62
2021/12/28 01:34:12;;;;;;;3.95;2.22;;;;;;;;;;4956565;29;20480;-62
2021/12/28 01:36:38;;;;;;;3.80;2.20;;;;;;;;;;4955536;29;20465;-62
2021/12/28 01:39:06;;;;;;;1.90;1.70;;;;;;;;;;4956354;29;20073;-62
2021/12/28 01:41:32;;;;;;;3.03;1.88;;;;;;;;;;4955640;29;20035;-62
2021/12/28 01:43:59;;;;;;;2.00;1.80;;;;;;;;;;4956681;29;20049;-62
2021/12/28 01:46:25;;;;;;;3.35;1.95;;;;;;;;;;4955669;29;20467;-63
2021/12/28 01:48:51;;;;;;;3.05;1.70;;;;;;;;;;4956037;29;20031;-63
2021/12/28 01:51:19;;;;;;;2.78;2.15;;;;;;;;;;4956375;29;20035;-62
2021/12/28 01:53:46;;;;;;;4.00;1.60;;;;;;;;;;4955622;29;20034;-62
2021/12/28 01:56:14;;;;;;;2.95;2.03;;;;;;;;;;4956283;29;20113;-62
2021/12/28 01:58:40;;;;;;;2.13;1.90;;;;;;;;;;4955282;28;20027;-62
2021/12/28 02:01:07;;;;;;;4.38;1.88;;;;;;;;;;4956408;29;20034;-62
2021/12/28 02:03:34;;;;;;;2.95;2.30;;;;;;;;;;4956079;29;20066;-62
2021/12/28 02:06:00;;;;;;;3.80;2.45;;;;;;;;;;4955858;29;20468;-62
2021/12/28 02:08:26;;;;;;;2.35;1.77;;;;;;;;;;4955300;29;20040;-63
2021/12/28 02:10:53;;;;;;;2.10;1.50;;;;;;;;;;4938573;29;20560;-62
2021/12/28 02:13:20;;;;;;;4.50;1.70;;;;;;;;;;4966528;28;20086;-62
2021/12/28 02:15:46;;;;;;;2.10;1.80;;;;;;;;;;4973658;28;20019;-62
2021/12/28 02:18:13;;;;;;;3.67;2.08;;;;;;;;;;4974805;28;20042;-62
2021/12/28 02:20:40;;;;;;;2.88;1.60;;;;;;;;;;4974196;28;20069;-62
2021/12/28 02:23:07;;;;;;;2.67;1.40;;;;;;;;;;4970848;28;20469;-62
2021/12/28 02:25:33;;;;;;;2.63;1.65;;;;;;;;;;4955022;29;20038;-62
2021/12/28 02:28:00;;;;;;;1.80;1.55;;;;;;;;;;4955488;29;20495;-62
2021/12/28 02:30:26;;;;;;;2.15;1.55;;;;;;;;;;4955241;29;20027;-63
2021/12/28 02:32:52;;;;;;;2.13;1.55;;;;;;;;;;4954851;29;20576;-62
2021/12/28 02:35:20;;;;;;;2.50;1.60;;;;;;;;;;4955713;29;20055;-62
2021/12/28 02:37:46;;;;;;;3.50;1.30;;;;;;;;;;4954761;29;20027;-62
2021/12/28 02:40:14;;;;;;;2.83;1.58;;;;;;;;;;4955400;29;20027;-62
2021/12/28 02:42:40;;;;;;;3.35;1.45;;;;;;;;;;4954626;29;20047;-62
2021/12/28 02:45:09;;;;;;;2.15;1.40;;;;;;;;;;4955423;29;20035;-62
2021/12/28 02:47:39;;;;;;;2.95;1.70;;;;;;;;;;4954606;29;20033;-62
2021/12/28 02:50:10;;;;;;;4.45;1.67;;;;;;;;;;4954792;29;20027;-62
2021/12/28 02:52:37;;;;;;;3.55;1.30;;;;;;;;;;4954451;29;20038;-62
2021/12/28 02:55:05;;;;;;;2.13;1.55;;;;;;;;;;4955118;29;20031;-61
2021/12/28 02:57:31;;;;;;;2.30;1.50;;;;;;;;;;4954460;29;20057;-62
2021/12/28 02:59:57;;;;;;;1.92;1.30;;;;;;;;;;4955120;29;20078;-62
2021/12/28 03:02:23;;;;;;;1.67;1.20;;;;;;;;;;4954770;29;20031;-62
2021/12/28 03:04:49;;;;;;;2.53;1.20;;;;;;;;;;4954110;29;20478;-62
2021/12/28 03:07:15;;;;;;;2.75;1.33;;;;;;;;;;4954961;29;20038;-62
2021/12/28 03:09:41;;;;;;;3.67;1.40;;;;;;;;;;4953509;28;20023;-62
2021/12/28 03:12:09;;;;;;;2.05;1.10;;;;;;;;;;4955756;28;20027;-61
2021/12/28 03:14:35;;;;;;;5.10;2.00;;;;;;;;;;4973462;28;20034;-62
2021/12/28 03:17:01;;;;;;;2.25;1.25;;;;;;;;;;4974131;28;20027;-62
2021/12/28 03:19:27;;;;;;;3.45;1.60;;;;;;;;;;4973695;28;20030;-63
2021/12/28 03:21:53;;;;;;;2.55;1.60;;;;;;;;;;4973289;28;20038;-62
2021/12/28 03:24:19;;;;;;;2.55;1.50;;;;;;;;;;4973947;28;20138;-62
2021/12/28 03:26:45;;;;;;;2.33;1.30;;;;;;;;;;4973032;28;20027;-62
2021/12/28 03:29:11;;;;;;;3.47;1.38;;;;;;;;;;4973960;28;20034;-62
2021/12/28 03:31:37;;;;;;;2.47;1.15;;;;;;;;;;4973026;28;20035;-62
2021/12/28 03:34:03;;;;;;;1.95;1.20;;;;;;;;;;4973414;28;20472;-61
2021/12/28 03:36:30;;;;;;;2.13;1.20;;;;;;;;;;4972949;28;20432;-63
2021/12/28 03:38:57;;;;;;;3.25;1.60;;;;;;;;;;4973715;28;20113;-62
2021/12/28 03:41:24;;;;;;;2.33;1.42;;;;;;;;;;4973355;28;20039;-61
2021/12/28 03:43:51;;;;;;;2.40;1.45;;;;;;;;;;4955251;28;20033;-62
2021/12/28 03:46:18;;;;;;;2.25;1.20;;;;;;;;;;4973527;28;20066;-62
2021/12/28 03:48:45;;;;;;;2.17;1.20;;;;;;;;;;4972539;28;20033;-61
2021/12/28 03:51:11;;;;;;;2.53;1.27;;;;;;;;;;4973353;28;20031;-62
2021/12/28 03:53:37;;;;;;;4.05;1.92;;;;;;;;;;4972518;28;20039;-62
2021/12/28 03:56:04;;;;;;;2.60;1.38;;;;;;;;;;4973463;28;20110;-62
2021/12/28 03:58:31;;;;;;;3.70;1.40;;;;;;;;;;4972883;28;20480;-63
2021/12/28 04:00:57;;;;;;;2.20;1.40;;;;;;;;;;4973419;28;20038;-62
2021/12/28 04:03:23;;;;;;;3.67;1.60;;;;;;;;;;4973407;28;20030;-62
2021/12/28 04:05:49;;;;;;;2.10;1.20;;;;;;;;;;4972726;28;20027;-62
2021/12/28 04:08:22;;;;;;;2.53;1.23;;;;;;;;;;4973004;28;20037;-62
2021/12/28 04:11:02;;;;;;;3.08;1.60;;;;;;;;;;4972551;28;20031;-62
2021/12/28 04:13:28;;;;;;;3.70;1.20;;;;;;;;;;4973134;28;20070;-63
2021/12/28 04:15:54;;;;;;;2.42;1.00;;;;;;;;;;4972758;28;20031;-62
2021/12/28 04:18:21;;;;;;;1.80;1.10;;;;;;;;;;4973150;28;20070;-62
2021/12/28 04:20:47;;;;;;;1.40;1.17;;;;;;;;;;4971384;28;20035;-62
2021/12/28 04:23:13;;;;;;;1.48;1.05;;;;;;;;;;4968032;28;20388;-62
2021/12/28 04:25:39;;;;;;;2.38;1.15;;;;;;;;;;4953207;29;20102;-61
2021/12/28 04:28:05;;;;;;;2.15;1.00;;;;;;;;;;4953764;29;20372;-62
2021/12/28 04:30:31;;;;;;;1.70;0.90;;;;;;;;;;4953155;29;20023;-63
2021/12/28 04:32:57;;;;;;;1.95;1.30;;;;;;;;;;4953672;29;20051;-61
2021/12/28 04:35:23;;;;;;;2.10;1.30;;;;;;;;;;4953713;29;20059;-61
2021/12/28 04:37:49;;;;;;;1.95;1.00;;;;;;;;;;4952981;29;20073;-63
2021/12/28 04:40:16;;;;;;;1.65;1.08;;;;;;;;;;4953527;29;20358;-61
2021/12/28 04:42:42;;;;;;;1.90;1.00;;;;;;;;;;4952612;29;20043;-60
2021/12/28 04:45:10;;;;;;;1.88;1.00;;;;;;;;;;4953353;29;20019;-61
2021/12/28 04:47:36;;;;;;;1.92;1.15;;;;;;;;;;4952818;29;20023;-61
2021/12/28 04:50:03;;;;;;;1.27;1.00;;;;;;;;;;4953760;29;20031;-61
2021/12/28 04:52:31;;;;;;;1.27;1.05;;;;;;;;;;4952995;29;20031;-63
2021/12/28 04:54:58;;;;;;;2.92;1.45;;;;;;;;;;4953191;29;20485;-62
2021/12/28 04:57:24;;;;;;;3.58;1.20;;;;;;;;;;4953410;29;20417;-62
2021/12/28 04:59:50;;;;;;;1.25;1.13;;;;;;;;;;4952825;29;20106;-62
2021/12/28 05:02:16;;;;;;;2.38;1.23;;;;;;;;;;4953498;29;20036;-62
2021/12/28 05:04:43;;;;;;;3.05;1.20;;;;;;;;;;4952397;29;20429;-61
2021/12/28 05:07:09;;;;;;;1.75;1.25;;;;;;;;;;4953252;29;20082;-61
2021/12/28 05:09:36;;;;;;;2.65;0.90;;;;;;;;;;4952554;29;20384;-62
2021/12/28 05:12:02;;;;;;;2.22;1.42;;;;;;;;;;4953602;28;20035;-61
2021/12/28 05:14:28;;;;;;;1.75;0.95;;;;;;;;;;4972803;28;20468;-62
2021/12/28 05:16:56;;;;;;;1.52;1.10;;;;;;;;;;4971817;28;20038;-62
2021/12/28 05:19:22;;;;;;;1.58;0.80;;;;;;;;;;4972753;28;20029;-61
2021/12/28 05:21:48;;;;;;;5.63;1.75;;;;;;;;;;4971849;28;20031;-63
2021/12/28 05:24:14;;;;;;;1.98;1.00;;;;;;;;;;4972830;28;20466;-61
2021/12/28 05:26:40;;;;;;;1.55;1.08;;;;;;;;;;4971838;28;20054;-61
2021/12/28 05:29:07;;;;;;;1.73;1.15;;;;;;;;;;4972546;28;20117;-61
2021/12/28 05:31:33;;;;;;;2.58;1.10;;;;;;;;;;4972156;28;20039;-64
2021/12/28 05:33:59;;;;;;;2.63;1.33;;;;;;;;;;4975622;28;20074;-62
2021/12/28 05:36:25;;;;;;;2.00;0.90;;;;;;;;;;4976051;28;20023;-62
2021/12/28 05:38:51;;;;;;;1.67;1.10;;;;;;;;;;4975060;28;20029;-62
2021/12/28 05:41:17;;;;;;;5.22;1.20;;;;;;;;;;4975648;28;20384;-62
2021/12/28 05:43:43;;;;;;;2.80;1.35;;;;;;;;;;4975242;28;20037;-62
2021/12/28 05:46:09;;;;;;;2.63;0.90;;;;;;;;;;4975951;28;20023;-62
2021/12/28 05:48:35;;;;;;;3.15;0.93;;;;;;;;;;4975260;28;20023;-62
2021/12/28 05:51:01;;;;;;;1.95;0.90;;;;;;;;;;4975563;28;20117;-61
2021/12/28 05:53:27;;;;;;;3.45;1.05;;;;;;;;;;4975502;28;20109;-61
2021/12/28 05:55:53;;;;;;;1.98;1.00;;;;;;;;;;4974763;28;20104;-62
2021/12/28 05:58:19;;;;;;;3.55;1.42;;;;;;;;;;4975451;28;20527;-62
2021/12/28 06:00:45;;;;;;;2.35;0.68;;;;;;;;;;4974605;28;20019;-62
2021/12/28 06:03:11;;;;;;;1.63;1.17;;;;;;;;;;4975305;28;20027;-61
2021/12/28 06:05:37;;;;;;;1.67;0.93;;;;;;;;;;4974414;28;20023;-61
2021/12/28 06:08:04;;;;;;;3.00;1.02;;;;;;;;;;4974916;28;20118;-61
2021/12/28 06:10:30;;;;;;;2.00;0.80;;;;;;;;;;4975437;28;20030;-61
2021/12/28 06:12:56;;;;;;;1.80;1.05;;;;;;;;;;4974177;28;20062;-62
2021/12/28 06:15:22;;;;;;;2.05;1.13;;;;;;;;;;4975285;28;20118;-61
2021/12/28 06:17:48;;;;;;;2.47;0.90;;;;;;;;;;4974060;28;20062;-61
2021/12/28 06:20:14;;;;;;;2.00;1.00;;;;;;;;;;4957572;28;20027;-61
2021/12/28 06:22:40;;;;;;;2.03;0.90;;;;;;;;;;4973558;28;20039;-60
2021/12/28 06:25:07;;;;;;;1.52;0.82;;;;;;;;;;4955411;29;20031;-61
2021/12/28 06:27:33;;;;;;;1.58;1.08;;;;;;;;;;4955231;29;20114;-64
2021/12/28 06:29:59;;;;;;;2.88;1.52;;;;;;;;;;4955496;29;20034;-61
2021/12/28 06:32:25;;;;;;;1.10;0.77;;;;;;;;;;4955654;29;20042;-62
2021/12/28 06:34:51;;;;;;;1.20;0.90;;;;;;;;;;4954492;29;20031;-62
2021/12/28 06:37:17;;;;;;;2.08;1.00;;;;;;;;;;4955517;29;20043;-61
2021/12/28 06:39:43;;;;;;;1.33;0.90;;;;;;;;;;4954569;29;20031;-62
2021/12/28 06:42:09;;;;;;;1.15;0.68;;;;;;;;;;4955401;29;20043;-62
2021/12/28 06:44:35;;;;;;;1.42;0.90;;;;;;;;;;4948834;28;20035;-65
2021/12/28 06:47:01;;;;;;;2.95;1.60;;;;;;;;;;4958726;28;20036;-64
2021/12/28 06:49:28;;;;;;;2.70;1.00;;;;;;;;;;4963360;28;20031;-63
2021/12/28 06:51:54;;;;;;;1.70;0.90;;;;;;;;;;4964222;28;20027;-63
2021/12/28 06:54:20;;;;;;;2.75;1.35;;;;;;;;;;4963582;28;20030;-62
2021/12/28 06:56:46;;;;;;;1.45;0.90;;;;;;;;;;4961756;28;20029;-62
2021/12/28 06:59:12;;;;;;;1.33;0.70;;;;;;;;;;4964448;28;20023;-63
2021/12/28 07:01:39;;;;;;;1.88;0.70;;;;;;;;;;4945602;28;20063;-63
2021/12/28 07:04:05;;;;;;;1.33;0.85;;;;;;;;;;4963123;28;20345;-63
2021/12/28 07:06:31;;;;;;;1.23;0.68;;;;;;;;;;4964382;28;20451;-63
2021/12/28 07:08:57;;;;;;;1.10;0.70;;;;;;;;;;4961969;28;20051;-63
2021/12/28 07:11:23;;;;;;;1.88;1.20;;;;;;;;;;4962662;28;20027;-63
2021/12/28 07:13:49;;;;;;;1.50;1.08;;;;;;;;;;4969654;28;20122;-63
2021/12/28 07:16:15;;;;;;;1.73;0.85;;;;;;;;;;4973767;28;20031;-60
2021/12/28 07:18:41;;;;;;;1.20;0.75;;;;;;;;;;4971711;28;20038;-62
2021/12/28 07:21:07;;;;;;;0.95;0.60;;;;;;;;;;4972181;28;20031;-64
2021/12/28 07:23:34;;;;;;;1.48;0.70;;;;;;;;;;4972449;28;20034;-64
2021/12/28 07:26:00;;;;;;;2.40;0.70;;;;;;;;;;4972007;28;20037;-63
2021/12/28 07:28:26;;;;;;;2.17;0.82;;;;;;;;;;4955243;28;20042;-62
2021/12/28 07:30:53;;;;;;;14.18;1.38;;;;;;;;;;4971561;28;20033;-61
2021/12/28 07:33:19;;;;;;;1.58;1.00;;;;;;;;;;4972026;28;20019;-60
2021/12/28 07:35:45;;;;;;;1.77;0.77;;;;;;;;;;4971855;28;20372;-59
2021/12/28 07:38:11;;;;;;;1.85;0.85;;;;;;;;;;4972162;28;20026;-58
2021/12/28 07:40:37;;;;;;;1.42;0.88;;;;;;;;;;4970985;28;20022;-64
2021/12/28 07:43:04;;;;;;;7.45;0.70;;;;;;;;;;4971803;28;20031;-60
2021/12/28 07:45:30;;;;;;;2.45;0.90;;;;;;;;;;4969325;28;20070;-62
2021/12/28 07:47:56;;;;;;;2.45;0.68;;;;;;;;;;4971500;28;20126;-60
2021/12/28 07:50:22;;;;;;;0.93;0.60;;;;;;;;;;4972097;28;20030;-66
2021/12/28 07:52:48;;;;;;;1.30;0.70;;;;;;;;;;4971404;28;20516;-60
2021/12/28 07:55:15;;;;;;;1.30;0.80;;;;;;;;;;4971754;28;20030;-62
2021/12/28 07:57:41;;;;;;;5.72;1.08;;;;;;;;;;4970923;28;20029;-56
2021/12/28 08:00:09;;;;;;;1.95;0.70;;;;;;;;;;4971813;28;20099;-60
2021/12/28 08:02:35;;;;;;;1.63;0.60;;;;;;;;;;4970984;28;20399;-67
2021/12/28 08:05:02;;;;;;;2.88;0.80;;;;;;;;;;4971564;28;20052;-60
2021/12/28 08:07:28;;;;;;;1.88;0.70;;;;;;;;;;4971491;28;20027;-60
2021/12/28 08:09:54;;;;;;;1.40;0.55;;;;;;;;;;4970783;28;20112;-60
2021/12/28 08:12:20;;;;;;;1.90;0.85;;;;;;;;;;4969265;28;20085;-61
2021/12/28 08:14:46;;;;;;;1.45;0.55;;;;;;;;;;4965692;28;20082;-63
2021/12/28 08:17:12;;;;;;;0.88;0.70;;;;;;;;;;4952493;29;20023;-63
2021/12/28 08:19:38;;;;;;;1.27;0.60;;;;;;;;;;4952930;29;20077;-62
2021/12/28 08:22:04;;;;;;;5.10;1.00;;;;;;;;;;4953751;29;20031;-62
2021/12/28 08:24:30;;;;;;;2.47;0.45;;;;;;;;;;4953684;29;20035;-62
2021/12/28 08:26:56;;;;;;;1.75;0.50;;;;;;;;;;4952781;29;20162;-61
2021/12/28 08:29:24;;;;;;;3.70;0.88;;;;;;;;;;4953435;29;20027;-61
2021/12/28 08:31:50;;;;;;;1.20;0.50;;;;;;;;;;4952864;29;20085;-65
2021/12/28 08:34:16;;;;;;;1.25;0.70;;;;;;;;;;4953643;29;20027;-65
2021/12/28 08:36:42;;;;;;;2.55;0.70;;;;;;;;;;4951882;29;20031;-62
2021/12/28 08:39:08;;;;;;;2.47;0.75;;;;;;;;;;4953476;29;20103;-62
2021/12/28 08:41:34;;;;;;;3.08;0.70;;;;;;;;;;4952970;29;20092;-63
2021/12/28 08:44:00;;;;;;;0.50;0.50;;;;;;;;;;4952848;29;20028;-62
2021/12/28 08:46:26;;;;;;;3.05;0.68;;;;;;;;;;4951942;29;20059;-62
2021/12/28 08:48:52;;;;;;;2.80;0.88;;;;;;;;;;4952681;29;20090;-55
2021/12/28 08:51:18;;;;;;;1.77;0.50;;;;;;;;;;4953585;29;20032;-54
2021/12/28 08:53:45;;;;;;;1.27;0.82;;;;;;;;;;4935580;29;20362;-60
2021/12/28 08:56:11;;;;;;;2.97;0.82;;;;;;;;;;4953158;29;20030;-53
2021/12/28 08:58:37;;;;;;;0.98;0.88;;;;;;;;;;4952981;29;20020;-67
2021/12/28 09:01:03;;;;;;;2.20;0.80;;;;;;;;;;4953213;29;20039;-58
2021/12/28 09:03:29;;;;;;;3.05;1.15;;;;;;;;;;4953185;29;20032;-59
2021/12/28 09:05:55;;;;;;;3.20;0.70;;;;;;;;;;4951716;29;20487;-61
2021/12/28 09:08:21;;;;;;;4.75;0.80;;;;;;;;;;4956001;28;20034;-63
2021/12/28 09:10:48;;;;;;;3.80;1.00;;;;;;;;;;4956137;29;20031;-44
2021/12/28 09:13:15;;;;;;;4.28;1.20;;;;;;;;;;4966651;28;20097;-59
2021/12/28 09:15:41;;;;;;;3.17;1.13;;;;;;;;;;4975307;28;20483;-60
2021/12/28 09:18:07;;;;;;;3.83;1.27;;;;;;;;;;4976118;28;20035;-58
2021/12/28 09:20:34;;;;;;;1.58;0.65;;;;;;;;;;4973946;28;20029;-63
2021/12/28 09:23:00;;;;;;;3.10;1.00;;;;;;;;;;4967189;28;20039;-59
2021/12/28 09:25:26;;;;;;;1.73;0.73;;;;;;;;;;4980804;28;20037;-59
2021/12/28 09:27:53;;;;;;;1.60;0.70;;;;;;;;;;4975608;28;20050;-57
2021/12/28 09:30:19;;;;;;;3.47;1.05;;;;;;;;;;4975911;28;20870;-57
2021/12/28 09:32:45;;;;;;;1.05;0.85;;;;;;;;;;4975181;28;20110;-55
2021/12/28 09:35:12;;;;;;;5.05;1.60;;;;;;;;;;4975984;28;20077;-53
2021/12/28 09:37:38;;;;;;;1.80;0.93;;;;;;;;;;4974158;28;20031;-61
2021/12/28 09:40:07;;;;;;;3.60;0.90;;;;;;;;;;4975785;28;20368;-55
2021/12/28 09:42:33;;;;;;;5.22;1.00;;;;;;;;;;4975165;28;20126;-55
2021/12/28 09:44:59;;;;;;;3.53;1.27;;;;;;;;;;4975004;28;20027;-53
2021/12/28 09:47:25;;;;;;;4.28;1.20;;;;;;;;;;4975336;28;20027;-54
2021/12/28 09:49:51;;;;;;;2.22;0.70;;;;;;;;;;4974737;28;20093;-55
2021/12/28 09:52:18;;;;;;;2.80;0.93;;;;;;;;;;4974740;28;20050;-55
2021/12/28 09:54:44;;;;;;;4.20;0.98;;;;;;;;;;4974485;28;20027;-55
2021/12/28 09:57:14;;;;;;;1.20;0.70;;;;;;;;;;4963642;28;20027;-58
2021/12/28 09:59:40;;;;;;;2.08;0.70;;;;;;;;;;4975536;28;20114;-60
2021/12/28 10:02:10;;;;;;;1.55;0.70;;;;;;;;;;4976174;28;20034;-60
2021/12/28 10:04:36;;;;;;;1.30;0.75;;;;;;;;;;4974724;28;20403;-63
2021/12/28 10:07:20;;;;;;;1.35;0.60;;;;;;;;;;4974759;28;20034;-60
2021/12/28 10:09:47;;;;;;;4.10;1.25;;;;;;;;;;4974353;28;20078;-60
2021/12/28 10:12:25;;;;;;;3.22;0.70;;;;;;;;;;4974752;28;20093;-60
2021/12/28 10:14:54;;;;;;;2.95;1.20;;;;;;;;;;4974456;28;20077;-60
2021/12/28 10:17:24;;;;;;;1.13;0.77;;;;;;;;;;4974967;28;20027;-60
2021/12/28 10:19:50;;;;;;;0.93;0.70;;;;;;;;;;4973206;28;20430;-59
2021/12/28 10:22:25;;;;;;;1.20;0.70;;;;;;;;;;4974801;28;20117;-59
2021/12/28 10:24:53;;;;;;;1.00;0.60;;;;;;;;;;4976127;28;20499;-59
2021/12/28 10:27:21;;;;;;;1.20;0.60;;;;;;;;;;4973686;28;20094;-59
2021/12/28 10:29:47;;;;;;;1.02;0.60;;;;;;;;;;4960762;28;20817;-61
2021/12/28 10:32:16;;;;;;;1.40;0.63;;;;;;;;;;4972874;28;20031;-60
2021/12/28 10:34:49;;;;;;;2.33;1.05;;;;;;;;;;4975555;28;20081;-61
2021/12/28 10:37:20;;;;;;;3.30;0.70;;;;;;;;;;4974256;28;20023;-60
2021/12/28 10:39:47;;;;;;;5.38;1.17;;;;;;;;;;4973660;28;20468;-59
2021/12/28 10:42:31;;;;;;;2.40;0.82;;;;;;;;;;4974313;28;20042;-59
2021/12/28 10:45:01;;;;;;;2.45;0.80;;;;;;;;;;4973568;28;20114;-60
2021/12/28 10:47:27;;;;;;;3.90;0.90;;;;;;;;;;4974319;28;20057;-60
2021/12/28 10:49:53;;;;;;;1.75;0.88;;;;;;;;;;4973443;28;20023;-60
2021/12/28 10:52:32;;;;;;;2.15;0.98;;;;;;;;;;4974703;28;20027;-57
2021/12/28 10:55:17;;;;;;;2.70;1.45;;;;;;;;;;4975629;28;20090;-54
2021/12/28 10:57:43;;;;;;;3.75;0.90;;;;;;;;;;4973363;28;20063;-51
2021/12/28 11:00:28;;;;;;;1.85;0.50;;;;;;;;;;4974158;28;20027;-55
2021/12/28 11:03:16;;;;;;;1.95;0.80;;;;;;;;;;4973058;28;20034;-55
2021/12/28 11:05:43;;;;;;;1.27;0.80;;;;;;;;;;4971216;28;20530;-56
2021/12/28 11:08:09;;;;;;;2.35;0.60;;;;;;;;;;4948764;28;20454;-59
2021/12/28 11:10:36;;;;;;;2.22;0.82;;;;;;;;;;4975288;28;20492;-60
2021/12/28 11:13:03;;;;;;;0.82;0.38;;;;;;;;;;4956337;28;20063;-58
2021/12/28 11:15:32;;;;;;;1.08;0.40;;;;;;;;;;4973744;28;20039;-59
2021/12/28 11:17:58;;;;;;;2.38;0.82;;;;;;;;;;4973077;28;20092;-59
2021/12/28 11:20:31;;;;;;;10.20;1.23;;;;;;;;;;4973894;28;20460;-60
2021/12/28 11:23:10;;;;;;;4.03;0.77;;;;;;;;;;4972992;28;20376;-58
2021/12/28 11:25:36;;;;;;;0.85;0.60;;;;;;;;;;4973908;28;20019;-60
2021/12/28 11:28:22;;;;;;;1.55;0.40;;;;;;;;;;4973105;28;20118;-57
2021/12/28 11:31:01;;;;;;;2.30;0.85;;;;;;;;;;4972485;28;20023;-57
2021/12/28 11:33:27;;;;;;;1.30;0.45;;;;;;;;;;4973659;28;20023;-59
2021/12/28 11:35:53;;;;;;;3.45;0.73;;;;;;;;;;4972853;28;20027;-60
2021/12/28 11:38:20;;;;;;;0.55;0.50;;;;;;;;;;4973985;28;20427;-59
2021/12/28 11:40:46;;;;;;;1.10;0.88;;;;;;;;;;4972820;28;20097;-60
2021/12/28 11:43:12;;;;;;;1.08;0.40;;;;;;;;;;4973687;28;20035;-59
2021/12/28 11:45:38;;;;;;;0.45;0.45;;;;;;;;;;4973388;28;20035;-59
2021/12/28 11:48:04;;;;;;;1.15;0.45;;;;;;;;;;4972664;28;20034;-59
2021/12/28 11:50:30;;;;;;;1.20;0.60;;;;;;;;;;4972708;28;20597;-59
2021/12/28 11:52:57;;;;;;;2.25;0.65;;;;;;;;;;4972184;28;20074;-59
2021/12/28 11:55:23;;;;;;;2.03;0.65;;;;;;;;;;4973751;28;20027;-58
2021/12/28 11:57:51;;;;;;;3.22;0.50;;;;;;;;;;4972358;28;20030;-58
2021/12/28 12:00:19;;;;;;;0.30;0.30;;;;;;;;;;4972978;28;20832;-57
2021/12/28 12:02:48;;;;;;;0.30;0.30;;;;;;;;;;4972632;28;20126;-60
2021/12/28 12:05:18;;;;;;;2.55;0.40;;;;;;;;;;4973707;28;20170;-61
2021/12/28 12:07:44;;;;;;;0.88;0.50;;;;;;;;;;4972833;28;20023;-64
2021/12/28 12:10:31;;;;;;;0.60;0.32;;;;;;;;;;4973146;28;20027;-59
2021/12/28 12:12:58;;;;;;;1.20;0.50;;;;;;;;;;4971565;28;20079;-59
2021/12/28 12:15:26;;;;;;;1.77;0.70;;;;;;;;;;4973053;28;20026;-58
2021/12/28 12:17:56;;;;;;;0.40;0.30;;;;;;;;;;4972419;28;20031;-59
2021/12/28 12:20:24;;;;;;;0.68;0.38;;;;;;;;;;4972971;28;20109;-58
2021/12/28 12:22:52;;;;;;;0.70;0.32;;;;;;;;;;4970266;28;20041;-57
2021/12/28 12:25:21;;;;;;;1.48;0.30;;;;;;;;;;4953810;29;20070;-58
2021/12/28 12:27:47;;;;;;;0.93;0.40;;;;;;;;;;4953210;29;20027;-60
2021/12/28 12:30:19;;;;;;;4.20;0.80;;;;;;;;;;4953829;29;20059;-59
2021/12/28 12:35:59;;;;;;;0.82;0.40;;;;;;;;;;4953769;29;20039;-59
2021/12/28 12:38:25;;;;;;;0.30;0.30;;;;;;;;;;4934050;29;20087;-58
2021/12/28 12:41:00;;;;;;;1.98;0.95;;;;;;;;;;4952312;28;20430;-53
2021/12/28 12:43:27;;;;;;;2.05;0.70;;;;;;;;;;4957089;29;20027;-51
2021/12/28 12:45:54;;;;;;;1.25;0.50;;;;;;;;;;4956670;29;20046;-53
2021/12/28 12:48:49;;;;;;;2.10;0.60;;;;;;;;;;4956980;28;20094;-50
2021/12/28 12:51:21;;;;;;;0.50;0.50;;;;;;;;;;4952899;28;20107;-51
2021/12/28 12:53:47;;;;;;;;;;;;;;;;;;4957027;28;20420;-52
2021/12/28 12:56:15;;;;;;;0.82;0.40;;;;;;;;;;4957131;29;19911;-50
2021/12/28 12:58:45;;;;;;;0.60;0.40;;;;;;;;;;4956853;29;20066;-52
2021/12/28 13:01:32;;;;;;;1.35;0.70;;;;;;;;;;4957043;28;20027;-49
2021/12/28 13:04:00;;;;;;;0.50;0.50;;;;;;;;;;4956701;28;20028;-48
2021/12/28 13:06:41;;;;;;;1.88;0.50;;;;;;;;;;4957282;29;20353;-53
2021/12/28 13:09:08;;;;;;;2.38;0.50;;;;;;;;;;4956716;29;20035;-59
2021/12/28 13:11:34;;;;;;;1.20;0.80;;;;;;;;;;4957248;29;20115;-56
2021/12/28 13:14:00;;;;;;;3.15;0.55;;;;;;;;;;4972451;28;20183;-55
2021/12/28 13:16:27;;;;;;;1.83;0.60;;;;;;;;;;4966503;28;20019;-58
2021/12/28 13:19:28;;;;;;;1.25;0.50;;;;;;;;;;4977751;28;20026;-57
2021/12/28 13:22:00;;;;;;;6.20;0.70;;;;;;;;;;4896694;29;20049;-56
2021/12/28 13:24:26;;;;;;;1.80;0.50;;;;;;;;;;4963032;28;20375;-58
2021/12/28 13:26:56;;;;;;;1.25;0.40;;;;;;;;;;4975346;28;20058;-57
2021/12/28 13:29:32;;;;;;;1.15;0.60;;;;;;;;;;4976170;28;20034;-57
2021/12/28 13:32:37;;;;;;;1.48;0.65;;;;;;;;;;4975402;28;20030;-58
2021/12/28 13:35:06;;;;;;;1.58;0.30;;;;;;;;;;4934209;29;20020;-57
2021/12/28 13:37:32;;;;;;;1.48;0.30;;;;;;;;;;4935056;29;20043;-58
2021/12/28 13:39:59;;;;;;;0.28;0.25;;;;;;;;;;4934116;29;20489;-58
2021/12/28 13:42:25;;;;;;;0.77;0.50;;;;;;;;;;4935100;29;20063;-57
2021/12/28 13:44:51;;;;;;;3.80;0.60;;;;;;;;;;4934171;29;20036;-57
2021/12/28 13:47:19;;;;;;;0.90;0.60;;;;;;;;;;4915599;29;20036;-58
2021/12/28 13:49:59;;;;;;;1.67;0.50;;;;;;;;;;4915520;29;20047;-66
2021/12/28 13:52:25;;;;;;;1.25;0.50;;;;;;;;;;4915942;29;20470;-58
2021/12/28 13:54:51;;;;;;;1.50;0.40;;;;;;;;;;4920678;29;20051;-59
2021/12/28 13:57:19;;;;;;;2.47;0.80;;;;;;;;;;4934602;29;20078;-58
2021/12/28 13:59:45;;;;;;;1.58;0.80;;;;;;;;;;4934419;29;20039;-64
2021/12/28 14:02:13;;;;;;;0.95;0.45;;;;;;;;;;4933221;29;20046;-58
2021/12/28 14:04:39;;;;;;;0.82;0.50;;;;;;;;;;4935638;28;20028;-56
2021/12/28 14:07:05;;;;;;;0.57;0.30;;;;;;;;;;4974153;28;20527;-54
2021/12/28 14:09:31;;;;;;;1.05;0.40;;;;;;;;;;4975045;28;20034;-56
2021/12/28 14:11:58;;;;;;;0.73;0.50;;;;;;;;;;4956967;28;20038;-56
2021/12/28 14:14:25;;;;;;;10.57;0.55;;;;;;;;;;4974769;28;20090;-55
2021/12/28 14:16:54;;;;;;;0.40;0.30;;;;;;;;;;4971520;28;20087;-57
2021/12/28 14:19:20;;;;;;;0.30;0.30;;;;;;;;;;4974903;28;20392;-56
2021/12/28 14:21:47;;;;;;;1.63;0.43;;;;;;;;;;4974556;28;20034;-63
2021/12/28 14:24:13;;;;;;;0.55;0.30;;;;;;;;;;4974499;28;20034;-58
2021/12/28 14:26:41;;;;;;;1.13;0.50;;;;;;;;;;4975312;28;20388;-61
2021/12/28 14:29:10;;;;;;;0.40;0.30;;;;;;;;;;4974149;28;20019;-61
2021/12/28 14:31:40;;;;;;;1.83;0.40;;;;;;;;;;4974658;28;20590;-61
2021/12/28 14:34:06;;;;;;;0.47;0.30;;;;;;;;;;4974260;28;20106;-59
2021/12/28 14:36:36;;;;;;;1.60;0.60;;;;;;;;;;4974841;28;20113;-59
2021/12/28 14:39:16;;;;;;;0.93;0.50;;;;;;;;;;4973741;28;20031;-61
2021/12/28 14:41:43;;;;;;;2.25;0.50;;;;;;;;;;4974614;28;20046;-59
2021/12/28 14:44:11;;;;;;;1.23;0.40;;;;;;;;;;4973689;28;20027;-59
2021/12/28 14:46:37;;;;;;;1.67;0.60;;;;;;;;;;4974422;28;20023;-58
2021/12/28 14:49:14;;;;;;;2.83;0.50;;;;;;;;;;4973628;28;20520;-58